sensor_id;sensor_type;location;lat;lon;timestamp;pressure;altitude;pressure_sealevel;temperature;humidity
71772;BME280;59606;52.138;5.424;2023-05-20T00:01:31;102634.63;;;13.07;66.87
71772;BME280;59606;52.138;5.424;2023-05-20T00:03:58;102644.31;;;13.05;67.16
71772;BME280;59606;52.138;5.424;2023-05-20T00:06:25;102640.88;;;13.03;66.59
71772;BME280;59606;52.138;5.424;2023-05-20T00:08:51;102638.44;;;12.98;67.03
71772;BME280;59606;52.138;5.424;2023-05-20T00:11:18;102635.94;;;12.95;67.34
71772;BME280;59606;52.138;5.424;2023-05-20T00:13:45;102634.25;;;12.92;66.99
71772;BME280;59606;52.138;5.424;2023-05-20T00:16:11;102635.22;;;12.90;67.65
71772;BME280;59606;52.138;5.424;2023-05-20T00:18:38;102643.91;;;12.90;67.23
71772;BME280;59606;52.138;5.424;2023-05-20T00:21:04;102640.44;;;12.90;67.19
71772;BME280;59606;52.138;5.424;2023-05-20T00:23:31;102638.00;;;12.85;67.53
71772;BME280;59606;52.138;5.424;2023-05-20T00:25:58;102641.69;;;12.80;67.80
71772;BME280;59606;52.138;5.424;2023-05-20T00:28:26;102640.03;;;12.77;67.65
71772;BME280;59606;52.138;5.424;2023-05-20T00:30:53;102641.97;;;12.72;68.06
71772;BME280;59606;52.138;5.424;2023-05-20T00:33:20;102637.69;;;12.69;68.37
71772;BME280;59606;52.138;5.424;2023-05-20T00:35:46;102643.00;;;12.68;68.18
71772;BME280;59606;52.138;5.424;2023-05-20T00:38:13;102640.41;;;12.66;68.38
71772;BME280;59606;52.138;5.424;2023-05-20T00:40:39;102643.88;;;12.67;68.39
71772;BME280;59606;52.138;5.424;2023-05-20T00:43:06;102628.25;;;12.65;68.34
71772;BME280;59606;52.138;5.424;2023-05-20T00:45:32;102637.00;;;12.64;68.41
71772;BME280;59606;52.138;5.424;2023-05-20T00:48:00;102630.97;;;12.62;68.92
71772;BME280;59606;52.138;5.424;2023-05-20T00:50:30;102629.31;;;12.60;68.69
71772;BME280;59606;52.138;5.424;2023-05-20T00:52:57;102630.31;;;12.56;69.20
71772;BME280;59606;52.138;5.424;2023-05-20T00:55:24;102625.31;;;12.49;69.49
71772;BME280;59606;52.138;5.424;2023-05-20T00:57:51;102634.97;;;12.47;69.34
71772;BME280;59606;52.138;5.424;2023-05-20T01:00:18;102624.53;;;12.47;69.70
71772;BME280;59606;52.138;5.424;2023-05-20T01:02:45;102625.38;;;12.48;69.82
71772;BME280;59606;52.138;5.424;2023-05-20T01:05:12;102620.19;;;12.46;69.56
71772;BME280;59606;52.138;5.424;2023-05-20T01:07:38;102623.72;;;12.45;69.72
71772;BME280;59606;52.138;5.424;2023-05-20T01:10:05;102622.97;;;12.42;69.79
71772;BME280;59606;52.138;5.424;2023-05-20T01:12:41;102619.53;;;12.40;69.72
71772;BME280;59606;52.138;5.424;2023-05-20T01:15:14;102626.59;;;12.38;69.98
71772;BME280;59606;52.138;5.424;2023-05-20T01:17:50;102614.47;;;12.35;70.42
71772;BME280;59606;52.138;5.424;2023-05-20T01:20:18;102608.44;;;12.33;70.13
71772;BME280;59606;52.138;5.424;2023-05-20T01:22:53;102603.38;;;12.29;70.37
71772;BME280;59606;52.138;5.424;2023-05-20T01:25:20;102606.00;;;12.27;70.75
71772;BME280;59606;52.138;5.424;2023-05-20T01:27:47;102604.47;;;12.21;70.83
71772;BME280;59606;52.138;5.424;2023-05-20T01:30:15;102608.16;;;12.16;70.90
71772;BME280;59606;52.138;5.424;2023-05-20T01:32:49;102607.41;;;12.12;70.97
71772;BME280;59606;52.138;5.424;2023-05-20T01:35:18;102600.47;;;12.11;71.21
71772;BME280;59606;52.138;5.424;2023-05-20T01:37:47;102594.53;;;12.06;71.51
71772;BME280;59606;52.138;5.424;2023-05-20T01:40:15;102594.59;;;12.05;71.72
71772;BME280;59606;52.138;5.424;2023-05-20T01:42:42;102594.63;;;12.03;71.58
71772;BME280;59606;52.138;5.424;2023-05-20T01:45:09;102591.22;;;12.01;72.05
71772;BME280;59606;52.138;5.424;2023-05-20T01:47:36;102586.84;;;12.01;71.93
71772;BME280;59606;52.138;5.424;2023-05-20T01:50:03;102587.78;;;11.99;72.40
71772;BME280;59606;52.138;5.424;2023-05-20T01:52:29;102592.22;;;11.97;72.14
71772;BME280;59606;52.138;5.424;2023-05-20T01:54:57;102587.91;;;11.96;72.10
71772;BME280;59606;52.138;5.424;2023-05-20T01:57:23;102600.28;;;11.91;72.33
71772;BME280;59606;52.138;5.424;2023-05-20T01:59:50;102587.34;;;11.86;72.44
71772;BME280;59606;52.138;5.424;2023-05-20T02:02:16;102581.22;;;11.87;72.53
71772;BME280;59606;52.138;5.424;2023-05-20T02:04:50;102589.16;;;11.84;72.68
71772;BME280;59606;52.138;5.424;2023-05-20T02:07:17;102592.69;;;11.82;72.82
71772;BME280;59606;52.138;5.424;2023-05-20T02:09:45;102590.09;;;11.80;72.99
71772;BME280;59606;52.138;5.424;2023-05-20T02:12:12;102590.25;;;11.75;73.04
71772;BME280;59606;52.138;5.424;2023-05-20T02:14:46;102594.72;;;11.72;73.29
71772;BME280;59606;52.138;5.424;2023-05-20T02:17:13;102590.41;;;11.71;73.46
71772;BME280;59606;52.138;5.424;2023-05-20T02:19:43;102587.06;;;11.67;73.76
71772;BME280;59606;52.138;5.424;2023-05-20T02:22:10;102588.78;;;11.67;73.75
71772;BME280;59606;52.138;5.424;2023-05-20T02:24:37;102588.94;;;11.62;73.97
71772;BME280;59606;52.138;5.424;2023-05-20T02:27:04;102592.50;;;11.60;73.89
71772;BME280;59606;52.138;5.424;2023-05-20T02:29:31;102590.78;;;11.59;73.97
71772;BME280;59606;52.138;5.424;2023-05-20T02:31:58;102594.41;;;11.54;74.30
71772;BME280;59606;52.138;5.424;2023-05-20T02:34:26;102598.81;;;11.52;74.22
71772;BME280;59606;52.138;5.424;2023-05-20T02:36:53;102590.19;;;11.50;74.39
71772;BME280;59606;52.138;5.424;2023-05-20T02:39:19;102588.63;;;11.43;74.34
71772;BME280;59606;52.138;5.424;2023-05-20T02:41:46;102583.53;;;11.40;74.87
71772;BME280;59606;52.138;5.424;2023-05-20T02:44:13;102581.88;;;11.38;74.65
71772;BME280;59606;52.138;5.424;2023-05-20T02:46:40;102581.91;;;11.36;75.30
71772;BME280;59606;52.138;5.424;2023-05-20T02:49:06;102581.09;;;11.34;75.24
71772;BME280;59606;52.138;5.424;2023-05-20T02:51:33;102577.66;;;11.33;75.45
71772;BME280;59606;52.138;5.424;2023-05-20T02:53:59;102576.84;;;11.30;75.51
71772;BME280;59606;52.138;5.424;2023-05-20T02:56:26;102576.97;;;11.27;75.69
71772;BME280;59606;52.138;5.424;2023-05-20T02:58:53;102566.63;;;11.24;75.65
71772;BME280;59606;52.138;5.424;2023-05-20T03:01:20;102569.34;;;11.19;75.75
71772;BME280;59606;52.138;5.424;2023-05-20T03:03:47;102574.66;;;11.16;76.29
71772;BME280;59606;52.138;5.424;2023-05-20T03:06:14;102571.34;;;11.11;76.65
71772;BME280;59606;52.138;5.424;2023-05-20T03:08:40;102581.72;;;11.13;76.68
71772;BME280;59606;52.138;5.424;2023-05-20T03:11:08;102572.13;;;11.13;76.62
71772;BME280;59606;52.138;5.424;2023-05-20T03:13:34;102583.56;;;11.09;77.08
71772;BME280;59606;52.138;5.424;2023-05-20T03:16:01;102581.03;;;11.06;76.87
71772;BME280;59606;52.138;5.424;2023-05-20T03:18:28;102581.97;;;11.05;76.92
71772;BME280;59606;52.138;5.424;2023-05-20T03:20:54;102585.47;;;11.04;77.21
71772;BME280;59606;52.138;5.424;2023-05-20T03:23:21;102581.22;;;11.00;77.31
71772;BME280;59606;52.138;5.424;2023-05-20T03:25:48;102583.81;;;11.00;77.46
71772;BME280;59606;52.138;5.424;2023-05-20T03:28:14;102578.75;;;10.95;77.63
71772;BME280;59606;52.138;5.424;2023-05-20T03:30:41;102586.56;;;10.97;77.61
71772;BME280;59606;52.138;5.424;2023-05-20T03:33:07;102584.72;;;11.00;77.80
71772;BME280;59606;52.138;5.424;2023-05-20T03:35:34;102587.31;;;11.00;77.60
71772;BME280;59606;52.138;5.424;2023-05-20T03:38:01;102578.53;;;11.03;78.03
71772;BME280;59606;52.138;5.424;2023-05-20T03:40:28;102582.88;;;11.02;77.88
71772;BME280;59606;52.138;5.424;2023-05-20T03:42:54;102584.66;;;11.02;78.29
71772;BME280;59606;52.138;5.424;2023-05-20T03:45:21;102576.91;;;10.99;77.96
71772;BME280;59606;52.138;5.424;2023-05-20T03:47:47;102582.97;;;10.99;77.97
71772;BME280;59606;52.138;5.424;2023-05-20T03:50:14;102582.03;;;11.02;78.08
71772;BME280;59606;52.138;5.424;2023-05-20T03:52:41;102582.13;;;10.99;78.49
71772;BME280;59606;52.138;5.424;2023-05-20T03:55:08;102581.28;;;10.98;78.76
71772;BME280;59606;52.138;5.424;2023-05-20T03:57:34;102576.13;;;10.97;78.77
71772;BME280;59606;52.138;5.424;2023-05-20T04:00:03;102579.53;;;10.99;78.65
71772;BME280;59606;52.138;5.424;2023-05-20T04:02:37;102577.84;;;10.96;78.83
71772;BME280;59606;52.138;5.424;2023-05-20T04:05:04;102581.22;;;11.00;78.94
71772;BME280;59606;52.138;5.424;2023-05-20T04:07:34;102570.78;;;11.00;79.12
71772;BME280;59606;52.138;5.424;2023-05-20T04:10:02;102580.28;;;11.02;79.20
71772;BME280;59606;52.138;5.424;2023-05-20T04:12:29;102575.03;;;11.04;79.16
71772;BME280;59606;52.138;5.424;2023-05-20T04:15:00;102574.06;;;11.06;79.40
71772;BME280;59606;52.138;5.424;2023-05-20T04:17:28;102569.75;;;11.05;79.83
71772;BME280;59606;52.138;5.424;2023-05-20T04:19:57;102570.53;;;11.09;79.46
71772;BME280;59606;52.138;5.424;2023-05-20T04:22:26;102573.97;;;11.11;79.61
71772;BME280;59606;52.138;5.424;2023-05-20T04:24:53;102576.50;;;11.13;79.75
71772;BME280;59606;52.138;5.424;2023-05-20T04:27:20;102581.69;;;11.14;79.90
71772;BME280;59606;52.138;5.424;2023-05-20T04:29:47;102572.94;;;11.17;79.82
71772;BME280;59606;52.138;5.424;2023-05-20T04:32:18;102580.69;;;11.18;79.63
71772;BME280;59606;52.138;5.424;2023-05-20T04:34:45;102578.84;;;11.22;79.97
71772;BME280;59606;52.138;5.424;2023-05-20T04:37:12;102583.16;;;11.23;79.81
71772;BME280;59606;52.138;5.424;2023-05-20T04:39:39;102578.78;;;11.25;79.76
71772;BME280;59606;52.138;5.424;2023-05-20T04:42:05;102583.91;;;11.28;79.80
71772;BME280;59606;52.138;5.424;2023-05-20T04:44:32;102588.97;;;11.32;79.95
71772;BME280;59606;52.138;5.424;2023-05-20T04:46:59;102588.88;;;11.36;79.69
71772;BME280;59606;52.138;5.424;2023-05-20T04:49:26;102596.69;;;11.37;79.64
71772;BME280;59606;52.138;5.424;2023-05-20T04:51:54;102593.06;;;11.41;79.88
71772;BME280;59606;52.138;5.424;2023-05-20T04:54:20;102592.81;;;11.49;79.70
71772;BME280;59606;52.138;5.424;2023-05-20T04:56:48;102589.13;;;11.56;79.40
71772;BME280;59606;52.138;5.424;2023-05-20T04:59:16;102586.38;;;11.61;79.38
71772;BME280;59606;52.138;5.424;2023-05-20T05:01:43;102580.16;;;11.65;79.49
71772;BME280;59606;52.138;5.424;2023-05-20T05:04:09;102585.19;;;11.71;79.17
71772;BME280;59606;52.138;5.424;2023-05-20T05:06:36;102577.38;;;11.71;79.10
71772;BME280;59606;52.138;5.424;2023-05-20T05:09:03;102581.53;;;11.76;78.98
71772;BME280;59606;52.138;5.424;2023-05-20T05:11:30;102580.41;;;11.84;79.19
71772;BME280;59606;52.138;5.424;2023-05-20T05:13:56;102570.63;;;11.92;78.98
71772;BME280;59606;52.138;5.424;2023-05-20T05:16:23;102569.72;;;11.93;78.64
71772;BME280;59606;52.138;5.424;2023-05-20T05:18:49;102572.13;;;11.99;78.63
71772;BME280;59606;52.138;5.424;2023-05-20T05:21:16;102568.47;;;12.05;78.77
71772;BME280;59606;52.138;5.424;2023-05-20T05:23:42;102571.63;;;12.14;78.59
71772;BME280;59606;52.138;5.424;2023-05-20T05:26:09;102562.81;;;12.17;78.45
71772;BME280;59606;52.138;5.424;2023-05-20T05:28:36;102566.06;;;12.23;78.06
71772;BME280;59606;52.138;5.424;2023-05-20T05:31:02;102565.84;;;12.31;77.91
71772;BME280;59606;52.138;5.424;2023-05-20T05:33:29;102569.97;;;12.37;77.99
71772;BME280;59606;52.138;5.424;2023-05-20T05:35:56;102560.22;;;12.42;77.47
71772;BME280;59606;52.138;5.424;2023-05-20T05:38:24;102564.06;;;12.57;77.69
71772;BME280;59606;52.138;5.424;2023-05-20T05:40:51;102560.25;;;12.65;77.05
71772;BME280;59606;52.138;5.424;2023-05-20T05:43:18;102558.72;;;12.83;76.84
71772;BME280;59606;52.138;5.424;2023-05-20T05:45:44;102560.50;;;13.06;75.58
71772;BME280;59606;52.138;5.424;2023-05-20T05:48:11;102550.47;;;13.41;74.32
71772;BME280;59606;52.138;5.424;2023-05-20T05:50:38;102553.59;;;13.93;73.49
71772;BME280;59606;52.138;5.424;2023-05-20T05:53:04;102556.97;;;14.58;71.01
71772;BME280;59606;52.138;5.424;2023-05-20T05:55:31;102559.59;;;15.16;68.53
71772;BME280;59606;52.138;5.424;2023-05-20T05:57:58;102545.09;;;15.82;66.19
71772;BME280;59606;52.138;5.424;2023-05-20T06:00:25;102548.44;;;16.53;64.21
71772;BME280;59606;52.138;5.424;2023-05-20T06:02:51;102545.09;;;17.16;61.48
71772;BME280;59606;52.138;5.424;2023-05-20T06:05:18;102535.63;;;17.43;61.07
71772;BME280;59606;52.138;5.424;2023-05-20T06:07:45;102536.91;;;17.52;60.52
71772;BME280;59606;52.138;5.424;2023-05-20T06:10:11;102534.59;;;17.46;60.11
71772;BME280;59606;52.138;5.424;2023-05-20T06:12:38;102537.00;;;16.87;60.84
71772;BME280;59606;52.138;5.424;2023-05-20T06:15:05;102547.13;;;15.94;62.50
71772;BME280;59606;52.138;5.424;2023-05-20T06:17:32;102550.44;;;15.06;65.24
71772;BME280;59606;52.138;5.424;2023-05-20T06:19:59;102544.13;;;14.52;67.24
71772;BME280;59606;52.138;5.424;2023-05-20T06:22:25;102552.25;;;14.25;68.40
71772;BME280;59606;52.138;5.424;2023-05-20T06:24:53;102539.94;;;14.07;69.17
71772;BME280;59606;52.138;5.424;2023-05-20T06:27:21;102544.31;;;14.06;70.16
71772;BME280;59606;52.138;5.424;2023-05-20T06:29:48;102549.44;;;14.09;70.60
71772;BME280;59606;52.138;5.424;2023-05-20T06:32:14;102552.19;;;14.06;71.02
71772;BME280;59606;52.138;5.424;2023-05-20T06:34:41;102557.03;;;14.15;70.88
71772;BME280;59606;52.138;5.424;2023-05-20T06:37:08;102540.38;;;14.17;70.19
71772;BME280;59606;52.138;5.424;2023-05-20T06:39:34;102543.84;;;14.17;70.81
71772;BME280;59606;52.138;5.424;2023-05-20T06:42:01;102545.25;;;14.26;71.12
71772;BME280;59606;52.138;5.424;2023-05-20T06:44:29;102543.34;;;14.29;71.06
71772;BME280;59606;52.138;5.424;2023-05-20T06:46:56;102538.69;;;14.36;70.38
71772;BME280;59606;52.138;5.424;2023-05-20T06:49:23;102541.63;;;14.49;70.03
71772;BME280;59606;52.138;5.424;2023-05-20T06:51:50;102535.94;;;14.59;69.81
71772;BME280;59606;52.138;5.424;2023-05-20T06:54:16;102541.53;;;14.71;69.45
71772;BME280;59606;52.138;5.424;2023-05-20T06:56:43;102533.22;;;14.61;70.37
71772;BME280;59606;52.138;5.424;2023-05-20T06:59:09;102526.78;;;14.68;69.67
71772;BME280;59606;52.138;5.424;2023-05-20T07:01:36;102526.72;;;14.70;70.11
71772;BME280;59606;52.138;5.424;2023-05-20T07:04:03;102523.34;;;14.87;69.39
71772;BME280;59606;52.138;5.424;2023-05-20T07:06:29;102528.94;;;14.98;68.44
71772;BME280;59606;52.138;5.424;2023-05-20T07:08:56;102525.38;;;14.99;69.17
71772;BME280;59606;52.138;5.424;2023-05-20T07:11:23;102528.75;;;15.02;67.40
71772;BME280;59606;52.138;5.424;2023-05-20T07:13:50;102523.03;;;15.12;68.47
71772;BME280;59606;52.138;5.424;2023-05-20T07:16:16;102515.66;;;15.20;67.24
71772;BME280;59606;52.138;5.424;2023-05-20T07:18:43;102515.38;;;15.26;66.65
71772;BME280;59606;52.138;5.424;2023-05-20T07:21:09;102513.00;;;15.39;66.56
71772;BME280;59606;52.138;5.424;2023-05-20T07:23:36;102507.31;;;15.48;66.10
71772;BME280;59606;52.138;5.424;2023-05-20T07:26:02;102505.16;;;15.56;64.64
71772;BME280;59606;52.138;5.424;2023-05-20T07:28:29;102508.00;;;15.51;65.39
71772;BME280;59606;52.138;5.424;2023-05-20T07:30:56;102503.16;;;15.61;65.09
71772;BME280;59606;52.138;5.424;2023-05-20T07:33:23;102503.72;;;15.68;63.25
71772;BME280;59606;52.138;5.424;2023-05-20T07:35:50;102494.91;;;15.69;64.12
71772;BME280;59606;52.138;5.424;2023-05-20T07:38:17;102491.97;;;15.75;63.55
71772;BME280;59606;52.138;5.424;2023-05-20T07:40:43;102487.25;;;15.82;63.84
71772;BME280;59606;52.138;5.424;2023-05-20T07:43:10;102489.03;;;15.98;63.13
71772;BME280;59606;52.138;5.424;2023-05-20T07:45:37;102488.47;;;16.09;63.46
71772;BME280;59606;52.138;5.424;2023-05-20T07:48:04;102487.59;;;16.26;62.78
71772;BME280;59606;52.138;5.424;2023-05-20T07:50:31;102487.97;;;16.36;62.46
71772;BME280;59606;52.138;5.424;2023-05-20T07:52:57;102495.47;;;16.43;61.43
71772;BME280;59606;52.138;5.424;2023-05-20T07:55:24;102480.38;;;16.47;60.41
71772;BME280;59606;52.138;5.424;2023-05-20T07:57:50;102479.34;;;16.49;59.88
71772;BME280;59606;52.138;5.424;2023-05-20T08:00:17;102476.91;;;16.62;59.64
71772;BME280;59606;52.138;5.424;2023-05-20T08:02:44;102472.25;;;16.67;59.34
71772;BME280;59606;52.138;5.424;2023-05-20T08:05:11;102462.56;;;16.68;59.70
71772;BME280;59606;52.138;5.424;2023-05-20T08:07:38;102471.06;;;16.73;58.82
71772;BME280;59606;52.138;5.424;2023-05-20T08:10:05;102462.00;;;16.79;57.77
71772;BME280;59606;52.138;5.424;2023-05-20T08:12:32;102455.22;;;16.90;58.68
71772;BME280;59606;52.138;5.424;2023-05-20T08:14:58;102460.75;;;17.02;57.49
71772;BME280;59606;52.138;5.424;2023-05-20T08:17:25;102462.34;;;17.04;57.33
71772;BME280;59606;52.138;5.424;2023-05-20T08:19:51;102459.09;;;17.15;56.88
71772;BME280;59606;52.138;5.424;2023-05-20T08:22:18;102458.09;;;17.17;55.84
71772;BME280;59606;52.138;5.424;2023-05-20T08:24:44;102466.41;;;17.26;56.41
71772;BME280;59606;52.138;5.424;2023-05-20T08:27:11;102474.97;;;17.29;54.17
71772;BME280;59606;52.138;5.424;2023-05-20T08:29:38;102459.66;;;17.36;53.85
71772;BME280;59606;52.138;5.424;2023-05-20T08:32:04;102475.97;;;17.42;53.50
71772;BME280;59606;52.138;5.424;2023-05-20T08:34:31;102469.00;;;17.41;51.68
71772;BME280;59606;52.138;5.424;2023-05-20T08:36:58;102455.91;;;17.40;51.33
71772;BME280;59606;52.138;5.424;2023-05-20T08:39:24;102459.22;;;17.43;52.43
71772;BME280;59606;52.138;5.424;2023-05-20T08:41:52;102453.59;;;17.50;51.18
71772;BME280;59606;52.138;5.424;2023-05-20T08:44:20;102449.41;;;17.61;51.79
71772;BME280;59606;52.138;5.424;2023-05-20T08:46:48;102442.81;;;17.68;51.72
71772;BME280;59606;52.138;5.424;2023-05-20T08:49:15;102443.50;;;17.72;51.95
71772;BME280;59606;52.138;5.424;2023-05-20T08:51:42;102445.81;;;17.78;51.18
71772;BME280;59606;52.138;5.424;2023-05-20T08:54:09;102437.78;;;17.80;49.98
71772;BME280;59606;52.138;5.424;2023-05-20T08:56:37;102436.00;;;17.80;49.86
71772;BME280;59606;52.138;5.424;2023-05-20T08:59:05;102434.13;;;17.82;49.29
71772;BME280;59606;52.138;5.424;2023-05-20T09:01:35;102430.00;;;17.93;51.11
71772;BME280;59606;52.138;5.424;2023-05-20T09:04:05;102440.00;;;18.02;49.45
71772;BME280;59606;52.138;5.424;2023-05-20T09:06:44;102431.53;;;18.11;49.48
71772;BME280;59606;52.138;5.424;2023-05-20T09:09:12;102425.84;;;18.17;48.42
71772;BME280;59606;52.138;5.424;2023-05-20T09:11:41;102435.84;;;18.26;49.18
71772;BME280;59606;52.138;5.424;2023-05-20T09:14:08;102430.31;;;18.31;48.78
71772;BME280;59606;52.138;5.424;2023-05-20T09:16:34;102434.16;;;18.25;48.23
71772;BME280;59606;52.138;5.424;2023-05-20T09:19:01;102430.66;;;18.25;48.40
71772;BME280;59606;52.138;5.424;2023-05-20T09:21:28;102427.44;;;18.20;48.51
71772;BME280;59606;52.138;5.424;2023-05-20T09:23:55;102428.56;;;18.30;47.77
71772;BME280;59606;52.138;5.424;2023-05-20T09:26:26;102429.50;;;18.43;47.43
71772;BME280;59606;52.138;5.424;2023-05-20T09:28:57;102422.25;;;18.47;47.84
71772;BME280;59606;52.138;5.424;2023-05-20T09:31:25;102415.44;;;18.57;47.74
71772;BME280;59606;52.138;5.424;2023-05-20T09:33:53;102410.44;;;18.67;46.87
71772;BME280;59606;52.138;5.424;2023-05-20T09:36:27;102415.16;;;18.76;46.89
71772;BME280;59606;52.138;5.424;2023-05-20T09:38:58;102401.97;;;18.76;45.95
71772;BME280;59606;52.138;5.424;2023-05-20T09:41:32;102404.47;;;18.77;46.75
71772;BME280;59606;52.138;5.424;2023-05-20T09:43:59;102410.03;;;18.87;47.37
71772;BME280;59606;52.138;5.424;2023-05-20T09:46:26;102393.47;;;18.98;47.10
71772;BME280;59606;52.138;5.424;2023-05-20T09:48:53;102397.22;;;19.08;46.05
71772;BME280;59606;52.138;5.424;2023-05-20T09:51:22;102404.19;;;19.09;45.50
71772;BME280;59606;52.138;5.424;2023-05-20T09:53:50;102393.63;;;19.09;46.60
71772;BME280;59606;52.138;5.424;2023-05-20T09:56:19;102395.25;;;18.97;45.90
71772;BME280;59606;52.138;5.424;2023-05-20T09:58:48;102387.25;;;18.99;46.03
71772;BME280;59606;52.138;5.424;2023-05-20T10:01:15;102381.16;;;19.11;46.50
71772;BME280;59606;52.138;5.424;2023-05-20T10:03:43;102389.31;;;19.21;45.40
71772;BME280;59606;52.138;5.424;2023-05-20T10:15:01;102373.81;;;19.29;45.03
71772;BME280;59606;52.138;5.424;2023-05-20T10:17:49;102386.91;;;19.30;44.86
71772;BME280;59606;52.138;5.424;2023-05-20T10:20:20;102371.41;;;19.39;44.98
71772;BME280;59606;52.138;5.424;2023-05-20T10:22:56;102374.03;;;19.51;45.57
71772;BME280;59606;52.138;5.424;2023-05-20T10:25:25;102368.66;;;19.53;44.99
71772;BME280;59606;52.138;5.424;2023-05-20T10:28:08;102365.03;;;19.28;45.01
71772;BME280;59606;52.138;5.424;2023-05-20T10:30:35;102372.94;;;19.16;44.89
71772;BME280;59606;52.138;5.424;2023-05-20T10:33:04;102360.44;;;19.18;45.66
71772;BME280;59606;52.138;5.424;2023-05-20T10:35:32;102357.75;;;19.32;44.89
71772;BME280;59606;52.138;5.424;2023-05-20T10:38:12;102355.41;;;19.40;44.83
71772;BME280;59606;52.138;5.424;2023-05-20T10:40:38;102357.31;;;19.38;45.60
71772;BME280;59606;52.138;5.424;2023-05-20T10:43:13;102347.59;;;19.26;46.21
71772;BME280;59606;52.138;5.424;2023-05-20T10:45:48;102338.59;;;19.41;46.47
71772;BME280;59606;52.138;5.424;2023-05-20T10:48:20;102342.22;;;19.53;46.22
71772;BME280;59606;52.138;5.424;2023-05-20T10:50:52;102335.88;;;19.68;47.59
71772;BME280;59606;52.138;5.424;2023-05-20T10:53:21;102339.13;;;19.97;45.15
71772;BME280;59606;52.138;5.424;2023-05-20T10:55:59;102349.97;;;20.18;45.49
71772;BME280;59606;52.138;5.424;2023-05-20T10:58:25;102336.63;;;20.33;43.37
71772;BME280;59606;52.138;5.424;2023-05-20T11:00:53;102337.03;;;20.39;43.19
71772;BME280;59606;52.138;5.424;2023-05-20T11:03:20;102326.13;;;20.31;44.12
71772;BME280;59606;52.138;5.424;2023-05-20T11:05:49;102325.53;;;20.15;44.09
71772;BME280;59606;52.138;5.424;2023-05-20T11:08:16;102331.19;;;19.97;44.22
71772;BME280;59606;52.138;5.424;2023-05-20T11:10:57;102319.56;;;19.87;44.79
71772;BME280;59606;52.138;5.424;2023-05-20T11:13:24;102334.09;;;19.69;44.26
71772;BME280;59606;52.138;5.424;2023-05-20T11:15:51;102324.53;;;19.53;45.26
71772;BME280;59606;52.138;5.424;2023-05-20T11:18:18;102318.97;;;19.45;45.06
71772;BME280;59606;52.138;5.424;2023-05-20T11:20:45;102326.38;;;19.66;45.27
71772;BME280;59606;52.138;5.424;2023-05-20T11:23:13;102316.31;;;19.84;45.11
71772;BME280;59606;52.138;5.424;2023-05-20T11:25:42;102312.13;;;20.05;44.98
71772;BME280;59606;52.138;5.424;2023-05-20T11:28:12;102308.78;;;20.27;45.09
71772;BME280;59606;52.138;5.424;2023-05-20T11:30:41;102308.09;;;20.49;44.86
71772;BME280;59606;52.138;5.424;2023-05-20T11:33:11;102316.44;;;20.80;44.58
71772;BME280;59606;52.138;5.424;2023-05-20T11:35:47;102308.03;;;20.86;42.02
71772;BME280;59606;52.138;5.424;2023-05-20T11:38:18;102302.00;;;20.84;44.50
71772;BME280;59606;52.138;5.424;2023-05-20T11:40:46;102299.56;;;20.81;42.63
71772;BME280;59606;52.138;5.424;2023-05-20T11:43:17;102298.44;;;20.72;43.82
71772;BME280;59606;52.138;5.424;2023-05-20T11:45:45;102288.59;;;20.74;43.40
71772;BME280;59606;52.138;5.424;2023-05-20T11:48:12;102308.38;;;20.57;43.59
71772;BME280;59606;52.138;5.424;2023-05-20T11:50:42;102302.50;;;20.41;42.95
71772;BME280;59606;52.138;5.424;2023-05-20T11:53:19;102303.22;;;20.56;43.92
71772;BME280;59606;52.138;5.424;2023-05-20T11:58:20;102284.19;;;20.86;43.73
71772;BME280;59606;52.138;5.424;2023-05-20T12:00:47;102281.44;;;20.99;41.99
71772;BME280;59606;52.138;5.424;2023-05-20T12:03:22;102265.44;;;21.11;42.16
71772;BME280;59606;52.138;5.424;2023-05-20T12:05:49;102272.94;;;21.29;42.05
71772;BME280;59606;52.138;5.424;2023-05-20T12:08:16;102274.13;;;21.25;41.88
71772;BME280;59606;52.138;5.424;2023-05-20T12:10:43;102278.13;;;21.30;42.61
71772;BME280;59606;52.138;5.424;2023-05-20T12:13:12;102261.72;;;21.14;42.80
71772;BME280;59606;52.138;5.424;2023-05-20T12:15:39;102265.66;;;20.97;42.91
71772;BME280;59606;52.138;5.424;2023-05-20T12:18:06;102262.13;;;20.85;43.81
71772;BME280;59606;52.138;5.424;2023-05-20T12:20:33;102265.25;;;20.79;43.85
71772;BME280;59606;52.138;5.424;2023-05-20T12:23:00;102262.31;;;20.71;43.10
71772;BME280;59606;52.138;5.424;2023-05-20T12:25:27;102265.72;;;20.73;44.06
71772;BME280;59606;52.138;5.424;2023-05-20T12:27:54;102262.22;;;20.73;42.06
71772;BME280;59606;52.138;5.424;2023-05-20T12:30:22;102254.41;;;20.82;42.47
71772;BME280;59606;52.138;5.424;2023-05-20T12:32:50;102256.28;;;21.04;42.91
71772;BME280;59606;52.138;5.424;2023-05-20T12:35:25;102253.84;;;21.36;42.26
71772;BME280;59606;52.138;5.424;2023-05-20T12:37:52;102273.84;;;21.63;41.22
71772;BME280;59606;52.138;5.424;2023-05-20T12:40:19;102269.63;;;21.60;41.10
71772;BME280;59606;52.138;5.424;2023-05-20T12:42:45;102263.47;;;21.60;40.51
71772;BME280;59606;52.138;5.424;2023-05-20T12:45:12;102266.72;;;21.52;41.32
71772;BME280;59606;52.138;5.424;2023-05-20T12:47:38;102257.06;;;21.74;41.75
71772;BME280;59606;52.138;5.424;2023-05-20T12:50:05;102249.22;;;21.72;40.79
71772;BME280;59606;52.138;5.424;2023-05-20T12:52:32;102256.34;;;21.72;41.34
71772;BME280;59606;52.138;5.424;2023-05-20T12:54:59;102244.66;;;21.74;41.00
71772;BME280;59606;52.138;5.424;2023-05-20T12:57:26;102240.66;;;21.69;40.65
71772;BME280;59606;52.138;5.424;2023-05-20T12:59:53;102243.09;;;21.60;41.21
71772;BME280;59606;52.138;5.424;2023-05-20T13:02:19;102243.19;;;21.59;41.07
71772;BME280;59606;52.138;5.424;2023-05-20T13:04:46;102240.44;;;21.49;41.55